Aérodrome :
LOGIN :

S'inscrire | Disclaimer

   EN    FR    IT 

 










Légende :    VFR   VFR Marginal   IFR   IFR Intensif   IFR Très Intensif
Visi : 
Plafond : 
>= 8 km
>= 3000ft
5 à 8 km
1000 à 3000 ft
1500m à 5 km
500 à 1000 ft
800 à 1500m
200 à 500 ft
< 800m
< 200 ft
Symboles :   Orages  Brouillard  Fortes neiges  Fortes précipitations  Vent > 20 kt
SIGMETs :   Divers  Orages  Givrage  Turbulence  Onde Orograph.  Cendres Volcan.






- Altitude de l'aérodrome : 699 ft
- Code IATA : PAD


EDLP - Paderborn Lippstadt

DERNIER METAR :
  • 192350Z 20012KT 9999 -RA SCT034 BKN042 04/M01 Q1019

METARs EXPIRÉS :
  • 192320Z 19009KT 9999 FEW042 04/M01 Q1019
  • 192250Z 19011KT CAVOK 03/M01 Q1020
  • 192220Z 20011KT CAVOK 03/M01 Q1020
  • 192150Z 20010KT CAVOK 03/M01 Q1020
  • 192120Z 21010KT CAVOK 02/M01 Q1020

TAF TAF EDLP
Valide du 20 à 00h jusqu'au 21 à 00h UTC


192300Z 2000/2024 21010KT CAVOK
BECMG 2007/2009 20015G25KT
TEMPO 2021/2022 27025G40KT 4000 +SHRA BKN020CB
BECMG 2022/2024 26015G25KT
TEMPO 2023/2024 SHRA BKN012CB



MET'MAP, la Météo Aéronautique d'un coup d'oeil ! - Copyright ORBIFLY Décembre 2007 - Disclaimer

ORBIFLY MET'MAP TEAM :

Programmation & Développement : Alexandra Zaïnal
Sur une idée originale de : Baudouin d'Aumeries
Assistance à la programmation : Marc-Olivier Méhu
Soutien technique & logistique : Manuel Goepfert

Contact : metmap@orbifly.com




SOURCES & CREDITS :

   NOAA